RYR86DZ EBCI-LFMU
Flight info
| Callsign | RYR86DZ |
|---|---|
| Flight time | 1h 21m |
| Altitude | 19000 |
| Route | CIV Y50 IDOKO/N0317F170 Y50 MATIX/N0325F190 Y50 REM B3 VATRI G40 TRO B373 MOU A27 MINPA/N0321F180 A27 MOKDI/N0325F190 A27 MEN J27 AFRIC |
| Aircraft | B738/M-SDFGILRWY/SB1 |
Departure
| Time | 2026-04-21 17:03 |
|---|---|
| Airport | Brussels South Charleroi Airport (EBCI) |
Arrival
| Time | 2026-04-21 18:25 |
|---|---|
| Airport | Béziers Vias airport (LFMU) |
| Time | Latitude | Longitude | Altitude | Speed | Heading |
|---|---|---|---|---|---|
| 2026-04-21 16:38 | 50.46855 | 4.47041 | 584 ft | 0 kts | 335° |
| 2026-04-21 16:54 | 50.46843 | 4.47049 | 584 ft | 2 kts | 334° |
| 2026-04-21 16:54 | 50.46831 | 4.47059 | 584 ft | 1 kts | 335° |
| 2026-04-21 16:54 | 50.46821 | 4.47066 | 584 ft | 2 kts | 317° |
| 2026-04-21 16:55 | 50.46813 | 4.47086 | 584 ft | 2 kts | 287° |
| 2026-04-21 16:55 | 50.46812 | 4.47109 | 583 ft | 2 kts | 257° |
| 2026-04-21 16:55 | 50.46814 | 4.47120 | 583 ft | 1 kts | 241° |
| 2026-04-21 16:55 | 50.46816 | 4.47126 | 583 ft | 0 kts | 245° |
| 2026-04-21 16:57 | 50.46811 | 4.47110 | 583 ft | 5 kts | 245° |
| 2026-04-21 16:57 | 50.46783 | 4.47006 | 585 ft | 14 kts | 245° |
| 2026-04-21 16:58 | 50.46732 | 4.46825 | 587 ft | 21 kts | 245° |
| 2026-04-21 16:58 | 50.46677 | 4.46634 | 590 ft | 17 kts | 246° |
| 2026-04-21 16:58 | 50.46635 | 4.46531 | 592 ft | 7 kts | 197° |
| 2026-04-21 16:58 | 50.46571 | 4.46556 | 592 ft | 11 kts | 166° |
| 2026-04-21 16:59 | 50.46512 | 4.46475 | 594 ft | 15 kts | 246° |
| 2026-04-21 16:59 | 50.46458 | 4.46288 | 598 ft | 21 kts | 244° |
| 2026-04-21 16:59 | 50.46387 | 4.46044 | 603 ft | 27 kts | 245° |
| 2026-04-21 16:59 | 50.46309 | 4.45777 | 609 ft | 26 kts | 245° |
| 2026-04-21 17:00 | 50.46232 | 4.45512 | 613 ft | 28 kts | 245° |
| 2026-04-21 17:00 | 50.46146 | 4.45217 | 616 ft | 29 kts | 246° |
| 2026-04-21 17:00 | 50.46096 | 4.45045 | 616 ft | 25 kts | 245° |
| 2026-04-21 17:00 | 50.45994 | 4.44695 | 616 ft | 26 kts | 245° |
| 2026-04-21 17:01 | 50.45919 | 4.44448 | 616 ft | 21 kts | 237° |
| 2026-04-21 17:01 | 50.45825 | 4.44255 | 616 ft | 22 kts | 232° |
| 2026-04-21 17:01 | 50.45729 | 4.44061 | 616 ft | 22 kts | 232° |
| 2026-04-21 17:01 | 50.45634 | 4.43905 | 617 ft | 13 kts | 211° |
| 2026-04-21 17:02 | 50.45603 | 4.43884 | 617 ft | 5 kts | 176° |
| 2026-04-21 17:02 | 50.45598 | 4.43946 | 617 ft | 7 kts | 65° |
| 2026-04-21 17:02 | 50.45628 | 4.44049 | 616 ft | 18 kts | 65° |
| 2026-04-21 17:02 | 50.45793 | 4.44618 | 616 ft | 96 kts | 65° |
| 2026-04-21 17:03 | 50.46166 | 4.45902 | 612 ft | 158 kts | 64° |
| 2026-04-21 17:03 | 50.46597 | 4.47387 | 1500 ft | 146 kts | 64° |
| 2026-04-21 17:03 | 50.47237 | 4.48631 | 2155 ft | 159 kts | 33° |
| 2026-04-21 17:03 | 50.48212 | 4.49516 | 2749 ft | 170 kts | 42° |
| 2026-04-21 17:04 | 50.48985 | 4.51008 | 3338 ft | 185 kts | 57° |
| 2026-04-21 17:04 | 50.49735 | 4.52756 | 3948 ft | 203 kts | 56° |
| 2026-04-21 17:04 | 50.50600 | 4.54603 | 4637 ft | 218 kts | 54° |
| 2026-04-21 17:04 | 50.51558 | 4.56564 | 5309 ft | 234 kts | 53° |
| 2026-04-21 17:05 | 50.52564 | 4.58613 | 5962 ft | 248 kts | 53° |
| 2026-04-21 17:05 | 50.53777 | 4.60621 | 6812 ft | 259 kts | 37° |
| 2026-04-21 17:05 | 50.55407 | 4.61722 | 7829 ft | 266 kts | 15° |
| 2026-04-21 17:05 | 50.57301 | 4.61878 | 8791 ft | 275 kts | 358° |
| 2026-04-21 17:06 | 50.59163 | 4.61228 | 9730 ft | 285 kts | 341° |
| 2026-04-21 17:06 | 50.60822 | 4.59461 | 10675 ft | 299 kts | 316° |
| 2026-04-21 17:06 | 50.61966 | 4.56614 | 11369 ft | 321 kts | 292° |
| 2026-04-21 17:06 | 50.62381 | 4.53063 | 12065 ft | 340 kts | 272° |
| 2026-04-21 17:07 | 50.62264 | 4.49303 | 12778 ft | 355 kts | 265° |
| 2026-04-21 17:07 | 50.61973 | 4.45403 | 13738 ft | 362 kts | 263° |
| 2026-04-21 17:07 | 50.61644 | 4.41507 | 14806 ft | 365 kts | 263° |
| 2026-04-21 17:07 | 50.61317 | 4.37566 | 15857 ft | 369 kts | 264° |
| 2026-04-21 17:08 | 50.61004 | 4.33525 | 16869 ft | 374 kts | 265° |
| 2026-04-21 17:08 | 50.60708 | 4.29469 | 17893 ft | 378 kts | 265° |
| 2026-04-21 17:08 | 50.60421 | 4.25386 | 18849 ft | 381 kts | 265° |
| 2026-04-21 17:08 | 50.60132 | 4.21212 | 19204 ft | 386 kts | 266° |
| 2026-04-21 17:09 | 50.59555 | 4.12878 | 19198 ft | 382 kts | 266° |
| 2026-04-21 17:09 | 50.59265 | 4.08723 | 19192 ft | 382 kts | 266° |
| 2026-04-21 17:09 | 50.58932 | 4.04573 | 19200 ft | 383 kts | 262° |
| 2026-04-21 17:10 | 50.58157 | 4.00567 | 19203 ft | 386 kts | 248° |
| 2026-04-21 17:10 | 50.56849 | 3.96885 | 19194 ft | 388 kts | 237° |
| 2026-04-21 17:10 | 50.55152 | 3.93597 | 19199 ft | 388 kts | 228° |
| 2026-04-21 17:10 | 50.53210 | 3.90684 | 19199 ft | 389 kts | 220° |
| 2026-04-21 17:11 | 50.50956 | 3.88376 | 19191 ft | 390 kts | 207° |
| 2026-04-21 17:11 | 50.48415 | 3.86839 | 19192 ft | 388 kts | 195° |
| 2026-04-21 17:11 | 50.45772 | 3.86001 | 19195 ft | 388 kts | 187° |
| 2026-04-21 17:11 | 50.43093 | 3.85724 | 19187 ft | 387 kts | 179° |
| 2026-04-21 17:12 | 50.40405 | 3.85913 | 19187 ft | 388 kts | 174° |
| 2026-04-21 17:12 | 50.37697 | 3.86342 | 19183 ft | 387 kts | 172° |
| 2026-04-21 17:12 | 50.35030 | 3.86863 | 19182 ft | 388 kts | 171° |
| 2026-04-21 17:12 | 50.32371 | 3.87412 | 19189 ft | 388 kts | 171° |
| 2026-04-21 17:13 | 50.29690 | 3.87947 | 19185 ft | 388 kts | 172° |
| 2026-04-21 17:13 | 50.26988 | 3.88459 | 19181 ft | 389 kts | 172° |
| 2026-04-21 17:13 | 50.24324 | 3.88943 | 19181 ft | 389 kts | 173° |
| 2026-04-21 17:13 | 50.21620 | 3.89417 | 19178 ft | 388 kts | 173° |
| 2026-04-21 17:14 | 50.18950 | 3.89875 | 19180 ft | 388 kts | 173° |
| 2026-04-21 17:14 | 50.16251 | 3.90333 | 19178 ft | 388 kts | 173° |
| 2026-04-21 17:14 | 50.13589 | 3.90783 | 19175 ft | 388 kts | 173° |
| 2026-04-21 17:14 | 50.10887 | 3.91238 | 19175 ft | 388 kts | 173° |
| 2026-04-21 17:15 | 50.08179 | 3.91695 | 19171 ft | 389 kts | 173° |
| 2026-04-21 17:15 | 50.05492 | 3.92148 | 19168 ft | 388 kts | 173° |
| 2026-04-21 17:15 | 50.02838 | 3.92596 | 19165 ft | 389 kts | 173° |
| 2026-04-21 17:15 | 50.00136 | 3.93052 | 19169 ft | 388 kts | 173° |
| 2026-04-21 17:16 | 49.97427 | 3.93510 | 19165 ft | 389 kts | 174° |
| 2026-04-21 17:16 | 49.94750 | 3.93961 | 19163 ft | 389 kts | 174° |
| 2026-04-21 17:16 | 49.92033 | 3.94418 | 19162 ft | 390 kts | 174° |
| 2026-04-21 17:16 | 49.89331 | 3.94872 | 19164 ft | 389 kts | 174° |
| 2026-04-21 17:17 | 49.86623 | 3.95327 | 19164 ft | 388 kts | 174° |
| 2026-04-21 17:17 | 49.83934 | 3.95778 | 19165 ft | 390 kts | 174° |
| 2026-04-21 17:17 | 49.81239 | 3.96229 | 19160 ft | 390 kts | 174° |
| 2026-04-21 17:17 | 49.78528 | 3.96682 | 19161 ft | 391 kts | 174° |
| 2026-04-21 17:18 | 49.75810 | 3.97137 | 19162 ft | 390 kts | 173° |
| 2026-04-21 17:18 | 49.73132 | 3.97585 | 19154 ft | 389 kts | 174° |
| 2026-04-21 17:18 | 49.70430 | 3.98037 | 19151 ft | 391 kts | 174° |
| 2026-04-21 17:18 | 49.67719 | 3.98490 | 19153 ft | 391 kts | 174° |
| 2026-04-21 17:19 | 49.64986 | 3.98946 | 19154 ft | 391 kts | 174° |
| 2026-04-21 17:19 | 49.62288 | 3.99396 | 19152 ft | 393 kts | 174° |
| 2026-04-21 17:19 | 49.59558 | 3.99851 | 19148 ft | 392 kts | 174° |
| 2026-04-21 17:19 | 49.56837 | 4.00303 | 19147 ft | 393 kts | 174° |
| 2026-04-21 17:20 | 49.54142 | 4.00750 | 19151 ft | 392 kts | 174° |
| 2026-04-21 17:20 | 49.51414 | 4.01202 | 19153 ft | 389 kts | 174° |
| 2026-04-21 17:20 | 49.48722 | 4.01647 | 19149 ft | 391 kts | 174° |
| 2026-04-21 17:20 | 49.46004 | 4.02096 | 19147 ft | 392 kts | 174° |
| 2026-04-21 17:21 | 49.43299 | 4.02543 | 19146 ft | 391 kts | 174° |
| 2026-04-21 17:21 | 49.40612 | 4.02987 | 19142 ft | 392 kts | 174° |
| 2026-04-21 17:21 | 49.37864 | 4.03440 | 19141 ft | 393 kts | 174° |
| 2026-04-21 17:21 | 49.35158 | 4.03885 | 19150 ft | 392 kts | 174° |
| 2026-04-21 17:22 | 49.32457 | 4.04325 | 19148 ft | 393 kts | 174° |
| 2026-04-21 17:22 | 49.29726 | 4.04707 | 19145 ft | 392 kts | 177° |
| 2026-04-21 17:22 | 49.26995 | 4.04875 | 19143 ft | 392 kts | 180° |
| 2026-04-21 17:22 | 49.24261 | 4.04912 | 19140 ft | 393 kts | 181° |
| 2026-04-21 17:23 | 49.21514 | 4.04907 | 19148 ft | 393 kts | 181° |
| 2026-04-21 17:23 | 49.18790 | 4.04906 | 19144 ft | 391 kts | 181° |
| 2026-04-21 17:23 | 49.16068 | 4.04918 | 19149 ft | 393 kts | 181° |
| 2026-04-21 17:23 | 49.13309 | 4.04947 | 19158 ft | 395 kts | 181° |
| 2026-04-21 17:24 | 49.10589 | 4.04996 | 19142 ft | 394 kts | 180° |
| 2026-04-21 17:24 | 49.07826 | 4.05061 | 19143 ft | 393 kts | 180° |
| 2026-04-21 17:24 | 49.05094 | 4.05133 | 19142 ft | 394 kts | 180° |
| 2026-04-21 17:24 | 49.02370 | 4.05207 | 19127 ft | 395 kts | 180° |
| 2026-04-21 17:25 | 48.99603 | 4.05285 | 19125 ft | 394 kts | 180° |
| 2026-04-21 17:25 | 48.96866 | 4.05361 | 19133 ft | 397 kts | 180° |
| 2026-04-21 17:25 | 48.94103 | 4.05438 | 19110 ft | 393 kts | 180° |
| 2026-04-21 17:25 | 48.91373 | 4.05511 | 19123 ft | 397 kts | 180° |
| 2026-04-21 17:26 | 48.88588 | 4.05586 | 19110 ft | 395 kts | 181° |
| 2026-04-21 17:26 | 48.85858 | 4.05659 | 19113 ft | 396 kts | 181° |
| 2026-04-21 17:26 | 48.83074 | 4.05732 | 19114 ft | 396 kts | 181° |
| 2026-04-21 17:26 | 48.80338 | 4.05804 | 19135 ft | 396 kts | 181° |
| 2026-04-21 17:27 | 48.77556 | 4.05872 | 19099 ft | 397 kts | 181° |
| 2026-04-21 17:27 | 48.74793 | 4.05920 | 19127 ft | 400 kts | 181° |
| 2026-04-21 17:27 | 48.71999 | 4.05957 | 19128 ft | 398 kts | 181° |
| 2026-04-21 17:27 | 48.69225 | 4.05992 | 19139 ft | 399 kts | 181° |
| 2026-04-21 17:28 | 48.66460 | 4.06026 | 19129 ft | 399 kts | 182° |
| 2026-04-21 17:28 | 48.63678 | 4.06061 | 19111 ft | 400 kts | 182° |
| 2026-04-21 17:28 | 48.60881 | 4.06098 | 19108 ft | 402 kts | 182° |
| 2026-04-21 17:28 | 48.58060 | 4.06106 | 19118 ft | 398 kts | 183° |
| 2026-04-21 17:29 | 48.55331 | 4.05882 | 19104 ft | 396 kts | 189° |
| 2026-04-21 17:29 | 48.52603 | 4.05295 | 19096 ft | 397 kts | 194° |
| 2026-04-21 17:29 | 48.49877 | 4.04478 | 19102 ft | 395 kts | 196° |
| 2026-04-21 17:29 | 48.47197 | 4.03573 | 19095 ft | 395 kts | 197° |
| 2026-04-21 17:30 | 48.44531 | 4.02648 | 19087 ft | 396 kts | 197° |
| 2026-04-21 17:30 | 48.41819 | 4.01716 | 19091 ft | 396 kts | 197° |
| 2026-04-21 17:30 | 48.39151 | 4.00821 | 19101 ft | 396 kts | 197° |
| 2026-04-21 17:30 | 48.36429 | 3.99926 | 19096 ft | 397 kts | 197° |
| 2026-04-21 17:31 | 48.33739 | 3.99057 | 19099 ft | 395 kts | 197° |
| 2026-04-21 17:31 | 48.31026 | 3.98190 | 19100 ft | 395 kts | 197° |
| 2026-04-21 17:31 | 48.28357 | 3.97341 | 19094 ft | 395 kts | 197° |
| 2026-04-21 17:31 | 48.25666 | 3.96488 | 19104 ft | 396 kts | 197° |
| 2026-04-21 17:32 | 48.22945 | 3.95692 | 19111 ft | 398 kts | 195° |
| 2026-04-21 17:32 | 48.20193 | 3.95036 | 19099 ft | 399 kts | 193° |
| 2026-04-21 17:32 | 48.17458 | 3.94459 | 19099 ft | 398 kts | 193° |
| 2026-04-21 17:32 | 48.14728 | 3.93907 | 19085 ft | 399 kts | 193° |
| 2026-04-21 17:33 | 48.11991 | 3.93355 | 19086 ft | 398 kts | 193° |
| 2026-04-21 17:33 | 48.09214 | 3.92784 | 19069 ft | 399 kts | 194° |
| 2026-04-21 17:33 | 48.06453 | 3.92209 | 19075 ft | 398 kts | 194° |
| 2026-04-21 17:33 | 48.03727 | 3.91631 | 19061 ft | 397 kts | 194° |
| 2026-04-21 17:34 | 48.01007 | 3.91049 | 19058 ft | 397 kts | 194° |
| 2026-04-21 17:34 | 47.98272 | 3.90457 | 19048 ft | 397 kts | 194° |
| 2026-04-21 17:34 | 47.95523 | 3.89858 | 19060 ft | 398 kts | 194° |
| 2026-04-21 17:34 | 47.92796 | 3.89265 | 19061 ft | 397 kts | 195° |
| 2026-04-21 17:35 | 47.90070 | 3.88674 | 19064 ft | 397 kts | 195° |
| 2026-04-21 17:35 | 47.87297 | 3.88071 | 19065 ft | 398 kts | 194° |
| 2026-04-21 17:35 | 47.84586 | 3.87483 | 19054 ft | 398 kts | 194° |
| 2026-04-21 17:35 | 47.81838 | 3.86889 | 19043 ft | 398 kts | 194° |
| 2026-04-21 17:36 | 47.79089 | 3.86295 | 19052 ft | 399 kts | 194° |
| 2026-04-21 17:36 | 47.76324 | 3.85699 | 19052 ft | 399 kts | 194° |
| 2026-04-21 17:36 | 47.73598 | 3.85112 | 19048 ft | 398 kts | 194° |
| 2026-04-21 17:36 | 47.70821 | 3.84513 | 19038 ft | 400 kts | 194° |
| 2026-04-21 17:37 | 47.68089 | 3.83927 | 19042 ft | 397 kts | 194° |
| 2026-04-21 17:37 | 47.65373 | 3.83345 | 19042 ft | 398 kts | 194° |
| 2026-04-21 17:37 | 47.62626 | 3.82756 | 19044 ft | 399 kts | 194° |
| 2026-04-21 17:37 | 47.59866 | 3.82164 | 19038 ft | 400 kts | 194° |
| 2026-04-21 17:38 | 47.57087 | 3.81568 | 19037 ft | 400 kts | 194° |
| 2026-04-21 17:38 | 47.54357 | 3.80984 | 19027 ft | 400 kts | 194° |
| 2026-04-21 17:38 | 47.51569 | 3.80382 | 19030 ft | 401 kts | 194° |
| 2026-04-21 17:38 | 47.48822 | 3.79789 | 19034 ft | 400 kts | 194° |
| 2026-04-21 17:39 | 47.46072 | 3.79194 | 19043 ft | 400 kts | 194° |
| 2026-04-21 17:39 | 47.43295 | 3.78596 | 19032 ft | 399 kts | 194° |
| 2026-04-21 17:39 | 47.40574 | 3.78010 | 19030 ft | 400 kts | 194° |
| 2026-04-21 17:39 | 47.37814 | 3.77415 | 19026 ft | 400 kts | 194° |
| 2026-04-21 17:40 | 47.35061 | 3.76824 | 19019 ft | 399 kts | 194° |
| 2026-04-21 17:40 | 47.32304 | 3.76232 | 19036 ft | 401 kts | 194° |
| 2026-04-21 17:40 | 47.29532 | 3.75638 | 19026 ft | 400 kts | 194° |
| 2026-04-21 17:40 | 47.26795 | 3.75051 | 19028 ft | 402 kts | 194° |
| 2026-04-21 17:41 | 47.24045 | 3.74463 | 19024 ft | 401 kts | 194° |
| 2026-04-21 17:41 | 47.21251 | 3.73865 | 19017 ft | 401 kts | 194° |
| 2026-04-21 17:41 | 47.18512 | 3.73280 | 19018 ft | 401 kts | 194° |
| 2026-04-21 17:41 | 47.15728 | 3.72686 | 19016 ft | 400 kts | 194° |
| 2026-04-21 17:42 | 47.12975 | 3.72101 | 19018 ft | 399 kts | 194° |
| 2026-04-21 17:42 | 47.10220 | 3.71514 | 19011 ft | 401 kts | 194° |
| 2026-04-21 17:42 | 47.07440 | 3.70923 | 19012 ft | 402 kts | 194° |
| 2026-04-21 17:42 | 47.04695 | 3.70340 | 19013 ft | 401 kts | 194° |
| 2026-04-21 17:43 | 47.01907 | 3.69749 | 19007 ft | 402 kts | 194° |
| 2026-04-21 17:43 | 46.99158 | 3.69167 | 19014 ft | 402 kts | 194° |
| 2026-04-21 17:43 | 46.96375 | 3.68579 | 19012 ft | 402 kts | 194° |
| 2026-04-21 17:43 | 46.93629 | 3.67998 | 19007 ft | 402 kts | 194° |
| 2026-04-21 17:44 | 46.90852 | 3.67412 | 19010 ft | 400 kts | 194° |
| 2026-04-21 17:44 | 46.88061 | 3.66823 | 19008 ft | 401 kts | 194° |
| 2026-04-21 17:44 | 46.85302 | 3.66243 | 19007 ft | 399 kts | 194° |
| 2026-04-21 17:44 | 46.82552 | 3.65664 | 19003 ft | 398 kts | 194° |
| 2026-04-21 17:45 | 46.79816 | 3.65089 | 19004 ft | 398 kts | 194° |
| 2026-04-21 17:45 | 46.77046 | 3.64506 | 19008 ft | 398 kts | 194° |
| 2026-04-21 17:45 | 46.74320 | 3.63934 | 19005 ft | 397 kts | 194° |
| 2026-04-21 17:45 | 46.71576 | 3.63297 | 19005 ft | 397 kts | 197° |
| 2026-04-21 17:46 | 46.68918 | 3.62394 | 19003 ft | 393 kts | 201° |
| 2026-04-21 17:46 | 46.66303 | 3.61256 | 19000 ft | 391 kts | 204° |
| 2026-04-21 17:46 | 46.63717 | 3.60005 | 19001 ft | 389 kts | 205° |
| 2026-04-21 17:46 | 46.61139 | 3.58713 | 18998 ft | 388 kts | 205° |
| 2026-04-21 17:47 | 46.58599 | 3.57430 | 18997 ft | 389 kts | 205° |
| 2026-04-21 17:47 | 46.56019 | 3.56136 | 18997 ft | 389 kts | 205° |
| 2026-04-21 17:47 | 46.53471 | 3.54874 | 18999 ft | 389 kts | 205° |
| 2026-04-21 17:47 | 46.50898 | 3.53610 | 18997 ft | 389 kts | 205° |
| 2026-04-21 17:48 | 46.48320 | 3.52354 | 18993 ft | 389 kts | 205° |
| 2026-04-21 17:48 | 46.45771 | 3.51119 | 18991 ft | 389 kts | 204° |
| 2026-04-21 17:48 | 46.43195 | 3.49877 | 18992 ft | 388 kts | 204° |
| 2026-04-21 17:48 | 46.40625 | 3.48639 | 18986 ft | 389 kts | 204° |
| 2026-04-21 17:49 | 46.38058 | 3.47406 | 18983 ft | 387 kts | 204° |
| 2026-04-21 17:49 | 46.35520 | 3.46187 | 18983 ft | 388 kts | 204° |
| 2026-04-21 17:49 | 46.32946 | 3.44952 | 18976 ft | 388 kts | 204° |
| 2026-04-21 17:49 | 46.30381 | 3.43723 | 18984 ft | 386 kts | 204° |
| 2026-04-21 17:50 | 46.27844 | 3.42508 | 18978 ft | 387 kts | 204° |
| 2026-04-21 17:50 | 46.25274 | 3.41279 | 18981 ft | 386 kts | 204° |
| 2026-04-21 17:50 | 46.22744 | 3.40069 | 18973 ft | 386 kts | 204° |
| 2026-04-21 17:50 | 46.20158 | 3.38834 | 18992 ft | 388 kts | 204° |
| 2026-04-21 17:51 | 46.17606 | 3.37616 | 18987 ft | 387 kts | 204° |
| 2026-04-21 17:51 | 46.15032 | 3.36390 | 18989 ft | 387 kts | 204° |
| 2026-04-21 17:51 | 46.12485 | 3.35178 | 18985 ft | 386 kts | 204° |
| 2026-04-21 17:51 | 46.09946 | 3.33970 | 18982 ft | 386 kts | 203° |
| 2026-04-21 17:52 | 46.07369 | 3.32747 | 18980 ft | 386 kts | 203° |
| 2026-04-21 17:52 | 46.04804 | 3.31530 | 18978 ft | 386 kts | 203° |
| 2026-04-21 17:52 | 46.02268 | 3.30328 | 18975 ft | 386 kts | 203° |
| 2026-04-21 17:52 | 45.99718 | 3.29121 | 18969 ft | 385 kts | 202° |
| 2026-04-21 17:53 | 45.97174 | 3.27918 | 18972 ft | 385 kts | 203° |
| 2026-04-21 17:53 | 45.94610 | 3.26704 | 18971 ft | 386 kts | 203° |
| 2026-04-21 17:53 | 45.92068 | 3.25504 | 18968 ft | 385 kts | 203° |
| 2026-04-21 17:53 | 45.89577 | 3.24328 | 18965 ft | 385 kts | 203° |
| 2026-04-21 17:54 | 45.87005 | 3.23116 | 18965 ft | 385 kts | 203° |
| 2026-04-21 17:54 | 45.84487 | 3.21929 | 18965 ft | 385 kts | 203° |
| 2026-04-21 17:54 | 45.81902 | 3.20729 | 18971 ft | 386 kts | 202° |
| 2026-04-21 17:54 | 45.79309 | 3.19715 | 18976 ft | 388 kts | 197° |
| 2026-04-21 17:55 | 45.76611 | 3.19104 | 18976 ft | 391 kts | 190° |
| 2026-04-21 17:55 | 45.73882 | 3.18844 | 18975 ft | 393 kts | 186° |
| 2026-04-21 17:55 | 45.71169 | 3.18757 | 18976 ft | 395 kts | 185° |
| 2026-04-21 17:55 | 45.68411 | 3.18737 | 18970 ft | 395 kts | 184° |
| 2026-04-21 17:56 | 45.65637 | 3.18729 | 18962 ft | 396 kts | 184° |
| 2026-04-21 17:56 | 45.62898 | 3.18714 | 18965 ft | 395 kts | 184° |
| 2026-04-21 17:56 | 45.60139 | 3.18682 | 18949 ft | 395 kts | 185° |
| 2026-04-21 17:56 | 45.57411 | 3.18639 | 18943 ft | 394 kts | 185° |
| 2026-04-21 17:57 | 45.54664 | 3.18586 | 18948 ft | 396 kts | 185° |
| 2026-04-21 17:57 | 45.51902 | 3.18524 | 18944 ft | 395 kts | 185° |
| 2026-04-21 17:57 | 45.49128 | 3.18459 | 18943 ft | 394 kts | 185° |
| 2026-04-21 17:57 | 45.46367 | 3.18390 | 18938 ft | 394 kts | 185° |
| 2026-04-21 17:58 | 45.43623 | 3.18320 | 18948 ft | 393 kts | 185° |
| 2026-04-21 17:58 | 45.40909 | 3.18251 | 18951 ft | 393 kts | 185° |
| 2026-04-21 17:58 | 45.38144 | 3.18180 | 18952 ft | 394 kts | 185° |
| 2026-04-21 17:58 | 45.35414 | 3.18110 | 18944 ft | 394 kts | 185° |
| 2026-04-21 17:59 | 45.32659 | 3.18040 | 18949 ft | 394 kts | 185° |
| 2026-04-21 17:59 | 45.29935 | 3.17970 | 18945 ft | 394 kts | 185° |
| 2026-04-21 17:59 | 45.27173 | 3.17900 | 18943 ft | 394 kts | 185° |
| 2026-04-21 17:59 | 45.24445 | 3.17832 | 18946 ft | 393 kts | 185° |
| 2026-04-21 18:00 | 45.21691 | 3.17762 | 18944 ft | 395 kts | 185° |
| 2026-04-21 18:00 | 45.18927 | 3.17692 | 18941 ft | 395 kts | 185° |
| 2026-04-21 18:00 | 45.16185 | 3.17623 | 18943 ft | 394 kts | 185° |
| 2026-04-21 18:00 | 45.13461 | 3.17555 | 18944 ft | 394 kts | 185° |
| 2026-04-21 18:01 | 45.10697 | 3.17486 | 18940 ft | 394 kts | 185° |
| 2026-04-21 18:01 | 45.07972 | 3.17394 | 18938 ft | 393 kts | 186° |
| 2026-04-21 18:01 | 45.05233 | 3.17261 | 18936 ft | 393 kts | 186° |
| 2026-04-21 18:01 | 45.02497 | 3.17108 | 18935 ft | 393 kts | 186° |
| 2026-04-21 18:02 | 44.99758 | 3.16948 | 18933 ft | 394 kts | 186° |
| 2026-04-21 18:02 | 44.97035 | 3.16790 | 18939 ft | 392 kts | 186° |
| 2026-04-21 18:02 | 44.94305 | 3.16648 | 18941 ft | 392 kts | 186° |
| 2026-04-21 18:02 | 44.91547 | 3.16569 | 18946 ft | 392 kts | 185° |
| 2026-04-21 18:03 | 44.88834 | 3.16538 | 18951 ft | 391 kts | 185° |
| 2026-04-21 18:03 | 44.86099 | 3.16521 | 18955 ft | 393 kts | 185° |
| 2026-04-21 18:03 | 44.83328 | 3.16505 | 18951 ft | 391 kts | 185° |
| 2026-04-21 18:03 | 44.80624 | 3.16484 | 18958 ft | 392 kts | 185° |
| 2026-04-21 18:04 | 44.77861 | 3.16457 | 18956 ft | 392 kts | 185° |
| 2026-04-21 18:04 | 44.75161 | 3.16425 | 18948 ft | 393 kts | 185° |
| 2026-04-21 18:04 | 44.72401 | 3.16391 | 18951 ft | 392 kts | 185° |
| 2026-04-21 18:04 | 44.69702 | 3.16356 | 18951 ft | 392 kts | 185° |
| 2026-04-21 18:05 | 44.66936 | 3.16320 | 18944 ft | 391 kts | 185° |
| 2026-04-21 18:05 | 44.64243 | 3.16281 | 18943 ft | 392 kts | 185° |
| 2026-04-21 18:05 | 44.61516 | 3.16118 | 18944 ft | 390 kts | 189° |
| 2026-04-21 18:05 | 44.58810 | 3.15623 | 18946 ft | 386 kts | 195° |
| 2026-04-21 18:06 | 44.56184 | 3.14837 | 18944 ft | 386 kts | 198° |
| 2026-04-21 18:06 | 44.53619 | 3.13912 | 18941 ft | 385 kts | 200° |
| 2026-04-21 18:06 | 44.51026 | 3.12921 | 18937 ft | 384 kts | 200° |
| 2026-04-21 18:06 | 44.48448 | 3.11933 | 18938 ft | 382 kts | 200° |
| 2026-04-21 18:07 | 44.45864 | 3.10962 | 18938 ft | 384 kts | 199° |
| 2026-04-21 18:07 | 44.43282 | 3.10014 | 18931 ft | 384 kts | 199° |
| 2026-04-21 18:07 | 44.40711 | 3.09086 | 18926 ft | 385 kts | 199° |
| 2026-04-21 18:07 | 44.38117 | 3.08160 | 18920 ft | 384 kts | 199° |
| 2026-04-21 18:08 | 44.35502 | 3.07230 | 18916 ft | 386 kts | 199° |
| 2026-04-21 18:08 | 44.32898 | 3.06308 | 18916 ft | 386 kts | 199° |
| 2026-04-21 18:08 | 44.30310 | 3.05393 | 18912 ft | 386 kts | 199° |
| 2026-04-21 18:08 | 44.27694 | 3.04471 | 18914 ft | 385 kts | 199° |
| 2026-04-21 18:09 | 44.25114 | 3.03560 | 18909 ft | 385 kts | 199° |
| 2026-04-21 18:09 | 44.22496 | 3.02637 | 18907 ft | 386 kts | 199° |
| 2026-04-21 18:09 | 44.19899 | 3.01722 | 18909 ft | 386 kts | 199° |
| 2026-04-21 18:09 | 44.17316 | 3.00812 | 18905 ft | 386 kts | 199° |
| 2026-04-21 18:10 | 44.14685 | 2.99887 | 18910 ft | 387 kts | 199° |
| 2026-04-21 18:10 | 44.12082 | 2.98972 | 18901 ft | 387 kts | 199° |
| 2026-04-21 18:10 | 44.09446 | 2.98049 | 18891 ft | 387 kts | 199° |
| 2026-04-21 18:10 | 44.06845 | 2.97140 | 18884 ft | 385 kts | 199° |
| 2026-04-21 18:11 | 44.04259 | 2.96238 | 18882 ft | 385 kts | 198° |
| 2026-04-21 18:11 | 44.01687 | 2.95344 | 18567 ft | 378 kts | 198° |
| 2026-04-21 18:11 | 43.99184 | 2.94482 | 17969 ft | 361 kts | 199° |
| 2026-04-21 18:11 | 43.96823 | 2.93671 | 17428 ft | 345 kts | 199° |
| 2026-04-21 18:12 | 43.94527 | 2.92878 | 16891 ft | 332 kts | 199° |
| 2026-04-21 18:12 | 43.92337 | 2.92116 | 16217 ft | 326 kts | 199° |
| 2026-04-21 18:12 | 43.90154 | 2.91351 | 15468 ft | 322 kts | 199° |
| 2026-04-21 18:12 | 43.88086 | 2.90628 | 14736 ft | 319 kts | 199° |
| 2026-04-21 18:13 | 43.85963 | 2.89887 | 14022 ft | 313 kts | 198° |
| 2026-04-21 18:13 | 43.83837 | 2.89148 | 13273 ft | 310 kts | 198° |
| 2026-04-21 18:13 | 43.81776 | 2.88432 | 12541 ft | 306 kts | 198° |
| 2026-04-21 18:13 | 43.79728 | 2.87749 | 11810 ft | 304 kts | 194° |
| 2026-04-21 18:14 | 43.75619 | 2.88297 | 10322 ft | 305 kts | 153° |
| 2026-04-21 18:14 | 43.73857 | 2.89873 | 9873 ft | 300 kts | 145° |
| 2026-04-21 18:14 | 43.72212 | 2.91556 | 9617 ft | 292 kts | 144° |
| 2026-04-21 18:15 | 43.70574 | 2.93212 | 9238 ft | 290 kts | 145° |
| 2026-04-21 18:15 | 43.68920 | 2.94820 | 8880 ft | 287 kts | 146° |
| 2026-04-21 18:15 | 43.67289 | 2.96359 | 8528 ft | 285 kts | 146° |
| 2026-04-21 18:15 | 43.65643 | 2.97890 | 8167 ft | 282 kts | 146° |
| 2026-04-21 18:16 | 43.64010 | 2.99403 | 7812 ft | 279 kts | 146° |
| 2026-04-21 18:16 | 43.62405 | 3.00890 | 7461 ft | 277 kts | 146° |
| 2026-04-21 18:16 | 43.60812 | 3.02366 | 7116 ft | 274 kts | 146° |
| 2026-04-21 18:16 | 43.59237 | 3.03827 | 6775 ft | 271 kts | 146° |
| 2026-04-21 18:17 | 43.57682 | 3.05269 | 6496 ft | 266 kts | 146° |
| 2026-04-21 18:17 | 43.56153 | 3.06685 | 6201 ft | 262 kts | 146° |
| 2026-04-21 18:17 | 43.54661 | 3.08065 | 5882 ft | 259 kts | 146° |
| 2026-04-21 18:17 | 43.53155 | 3.09458 | 5552 ft | 256 kts | 145° |
| 2026-04-21 18:18 | 43.51694 | 3.10809 | 5232 ft | 254 kts | 145° |
| 2026-04-21 18:18 | 43.50222 | 3.12170 | 4916 ft | 252 kts | 145° |
| 2026-04-21 18:18 | 43.48762 | 3.13453 | 4595 ft | 249 kts | 151° |
| 2026-04-21 18:18 | 43.47133 | 3.14202 | 4361 ft | 243 kts | 175° |
| 2026-04-21 18:19 | 43.45484 | 3.14019 | 4241 ft | 233 kts | 189° |
| 2026-04-21 18:19 | 43.43908 | 3.13612 | 4094 ft | 226 kts | 189° |
| 2026-04-21 18:19 | 43.42379 | 3.13251 | 3948 ft | 219 kts | 187° |
| 2026-04-21 18:19 | 43.40890 | 3.12941 | 3749 ft | 216 kts | 187° |
| 2026-04-21 18:20 | 43.39407 | 3.12654 | 3499 ft | 215 kts | 186° |
| 2026-04-21 18:20 | 43.37928 | 3.12371 | 3249 ft | 214 kts | 186° |
| 2026-04-21 18:20 | 43.36442 | 3.12115 | 3017 ft | 212 kts | 182° |
| 2026-04-21 18:20 | 43.35012 | 3.12317 | 2806 ft | 206 kts | 156° |
| 2026-04-21 18:21 | 43.33936 | 3.13543 | 2641 ft | 201 kts | 121° |
| 2026-04-21 18:21 | 43.33441 | 3.15346 | 2473 ft | 203 kts | 101° |
| 2026-04-21 18:21 | 43.33301 | 3.17250 | 2286 ft | 197 kts | 94° |
| 2026-04-21 18:21 | 43.33229 | 3.19023 | 2117 ft | 175 kts | 94° |
| 2026-04-21 18:22 | 43.33155 | 3.20579 | 1991 ft | 155 kts | 95° |
| 2026-04-21 18:22 | 43.33081 | 3.21979 | 1981 ft | 142 kts | 95° |
| 2026-04-21 18:22 | 43.33004 | 3.23352 | 1745 ft | 143 kts | 95° |
| 2026-04-21 18:22 | 43.32932 | 3.24676 | 1475 ft | 140 kts | 95° |
| 2026-04-21 18:23 | 43.32858 | 3.26015 | 1255 ft | 140 kts | 95° |
| 2026-04-21 18:23 | 43.32785 | 3.27349 | 1057 ft | 141 kts | 95° |
| 2026-04-21 18:23 | 43.32711 | 3.28695 | 865 ft | 142 kts | 95° |
| 2026-04-21 18:23 | 43.32629 | 3.30046 | 703 ft | 141 kts | 95° |
| 2026-04-21 18:24 | 43.32548 | 3.31373 | 561 ft | 142 kts | 94° |
| 2026-04-21 18:24 | 43.32483 | 3.32743 | 372 ft | 144 kts | 94° |
| 2026-04-21 18:24 | 43.32410 | 3.34119 | 139 ft | 145 kts | 94° |
| 2026-04-21 18:24 | 43.32337 | 3.35420 | 59 ft | 106 kts | 95° |
| 2026-04-21 18:25 | 43.32300 | 3.36085 | 57 ft | 37 kts | 94° |
| 2026-04-21 18:25 | 43.32278 | 3.36336 | 54 ft | 13 kts | 107° |
| 2026-04-21 18:25 | 43.32280 | 3.36421 | 53 ft | 3 kts | 30° |
| 2026-04-21 18:25 | 43.32290 | 3.36381 | 54 ft | 10 kts | 271° |
| 2026-04-21 18:26 | 43.32293 | 3.36209 | 56 ft | 26 kts | 272° |
| 2026-04-21 18:26 | 43.32307 | 3.35950 | 58 ft | 26 kts | 274° |
| 2026-04-21 18:26 | 43.32323 | 3.35661 | 59 ft | 31 kts | 274° |
| 2026-04-21 18:26 | 43.32338 | 3.35393 | 59 ft | 10 kts | 267° |
| 2026-04-21 18:27 | 43.32270 | 3.35331 | 58 ft | 13 kts | 184° |
| 2026-04-21 18:27 | 43.32193 | 3.35315 | 58 ft | 9 kts | 221° |
| 2026-04-21 18:27 | 43.32167 | 3.35276 | 58 ft | 5 kts | 202° |
| 2026-04-21 18:27 | 43.32147 | 3.35270 | 58 ft | 1 kts | 176° |
| 2026-04-21 18:28 | 43.32139 | 3.35259 | 58 ft | 4 kts | 286° |
| 2026-04-21 18:28 | 43.32143 | 3.35248 | 58 ft | 0 kts | 303° |